Time;durP1;ratioP1;P1;durP2;ratioP2;P2;SDS_P1;SDS_P2;PMS_P1;PMS_P2;Temp;Humidity;BMP_temperature;BMP_pressure;BME280_temperature;BME280_humidity;BME280_pressure;Samples;Min_cycle;Max_cycle;Signal;HPM_P1;HPM_P2
2022/05/26 00:01:23;;;;;;;;;;;;;;;-142.75;100.00;77046.69;5051015;28;20459;-69
2022/05/26 00:03:48;;;;;;;;;;;;;;;-142.75;100.00;77048.66;5051029;28;19916;-69
2022/05/26 00:06:15;;;;;;;;;;;;;;;-142.75;100.00;77044.72;5049973;28;20431;-69
2022/05/26 00:08:40;;;;;;;;;;;;;;;-142.75;100.00;77040.78;5050270;28;19920;-69
2022/05/26 00:11:07;;;;;;;;;;;;;;;-142.75;100.00;77040.78;5050915;28;19961;-70
2022/05/26 00:13:32;;;;;;;;;;;;;;;-142.75;100.00;77052.59;5050389;28;19940;-68
2022/05/26 00:15:57;;;;;;;;;;;;;;;-142.75;100.00;77054.56;5050848;28;19917;-69
2022/05/26 00:18:22;;;;;;;;;;;;;;;-142.75;100.00;77050.63;5050304;28;20341;-69
2022/05/26 00:20:47;;;;;;;;;;;;;;;-142.75;100.00;77050.63;5032702;28;19920;-69
2022/05/26 00:23:13;;;;;;;;;;;;;;;-142.75;100.00;77054.56;5032810;28;19917;-69
2022/05/26 00:25:39;;;;;;;;;;;;;;;-142.75;100.00;77054.56;5032766;28;20305;-69
2022/05/26 00:28:04;;;;;;;;;;;;;;;-142.75;100.00;77052.59;5050662;28;19960;-68
2022/05/26 00:30:30;;;;;;;;;;;;;;;-142.75;100.00;77050.63;5050690;28;19924;-69
2022/05/26 00:32:56;;;;;;;;;;;;;;;-142.75;100.00;77058.50;5065971;28;19921;-70
2022/05/26 00:35:21;;;;;;;;;;;;;;;-142.75;100.00;77060.47;5050351;28;20000;-70
2022/05/26 00:37:46;;;;;;;;;;;;;;;-142.75;100.00;77064.41;5050154;28;19948;-69
2022/05/26 00:40:12;;;;;;;;;;;;;;;-142.75;100.00;77066.38;5065772;28;19924;-69
2022/05/26 00:42:38;;;;;;;;;;;;;;;-142.75;100.00;77072.28;5050501;28;19963;-69
2022/05/26 00:45:04;;;;;;;;;;;;;;;-142.75;100.00;77070.31;5050321;28;19921;-69
2022/05/26 00:47:31;;;;;;;;;;;;;;;-142.75;100.00;77066.38;5032398;28;19924;-69
2022/05/26 00:50:14;;;;;;;;;;;;;;;-142.75;100.00;77078.19;5050034;28;20533;-69
2022/05/26 00:52:42;;;;;;;;;;;;;;;-142.75;100.00;77078.19;5050387;28;20346;-69
2022/05/26 00:55:19;;;;;;;;;;;;;;;-142.75;100.00;77082.13;5050191;28;20345;-69
2022/05/26 00:57:48;;;;;;;;;;;;;;;-142.75;100.00;77080.16;5050834;28;19978;-69
2022/05/26 01:00:15;;;;;;;;;;;;;;;-142.75;100.00;77078.19;5032229;28;19920;-69
2022/05/26 01:02:44;;;;;;;;;;;;;;;-142.75;100.00;77082.13;5050074;28;19924;-69
2022/05/26 01:05:21;;;;;;;;;;;;;;;-142.75;100.00;77078.19;5050345;28;19959;-69
2022/05/26 01:07:47;;;;;;;;;;;;;;;-142.75;100.00;77080.16;5049776;28;19918;-69
2022/05/26 01:10:13;;;;;;;;;;;;;;;-142.75;100.00;77078.19;5049974;28;20429;-69
2022/05/26 01:12:39;;;;;;;;;;;;;;;-142.75;100.00;77078.19;5050163;28;19932;-69
2022/05/26 01:15:04;;;;;;;;;;;;;;;-142.75;100.00;77078.19;5049948;28;19917;-69
2022/05/26 01:18:02;;;;;;;;;;;;;;;-142.75;100.00;77076.22;5051147;28;20378;-69
2022/05/26 01:20:33;;;;;;;;;;;;;;;-142.75;100.00;77078.19;5020016;28;20043;-69
2022/05/26 01:23:08;;;;;;;;;;;;;;;-142.75;100.00;77072.28;5054175;28;20003;-69
2022/05/26 01:25:53;;;;;;;;;;;;;;;-142.75;100.00;77076.22;5053722;28;19920;-69
2022/05/26 01:28:31;;;;;;;;;;;;;;;-142.75;100.00;77076.22;5053973;28;19917;-69
2022/05/26 01:31:05;;;;;;;;;;;;;;;-142.75;100.00;77078.19;5053629;28;19916;-69
2022/05/26 01:33:34;;;;;;;;;;;;;;;-142.75;100.00;77074.25;5054153;28;19928;-69
2022/05/26 01:36:10;;;;;;;;;;;;;;;-142.75;100.00;77082.13;5053589;28;19931;-70
2022/05/26 01:38:45;;;;;;;;;;;;;;;-142.75;100.00;77082.13;5035396;28;19962;-69
2022/05/26 01:41:16;;;;;;;;;;;;;;;-142.75;100.00;77080.16;5069037;28;20298;-70
2022/05/26 01:43:57;;;;;;;;;;;;;;;-142.75;100.00;77074.25;5053792;28;19917;-69
2022/05/26 01:46:27;;;;;;;;;;;;;;;-142.75;100.00;77076.22;5018969;28;19917;-69
2022/05/26 01:49:11;;;;;;;;;;;;;;;-142.75;100.00;77086.06;5053403;28;19958;-69
2022/05/26 01:51:39;;;;;;;;;;;;;;;-142.75;100.00;77084.09;5053478;28;19932;-70
2022/05/26 01:54:04;;;;;;;;;;;;;;;-142.75;100.00;77086.06;5053197;28;19928;-70
2022/05/26 01:56:32;;;;;;;;;;;;;;;-142.75;100.00;77090.00;5053199;28;20286;-69
2022/05/26 01:59:09;;;;;;;;;;;;;;;-142.75;100.00;77082.13;5053553;28;19924;-69
2022/05/26 02:01:38;;;;;;;;;;;;;;;-142.75;100.00;77078.19;5053349;28;19928;-69
2022/05/26 02:04:08;;;;;;;;;;;;;;;-142.75;100.00;77078.19;5053116;28;19917;-69
2022/05/26 02:06:36;;;;;;;;;;;;;;;-142.75;100.00;77078.19;5053262;28;20007;-69
2022/05/26 02:09:06;;;;;;;;;;;;;;;-142.75;100.00;77086.06;5052647;28;19917;-69
2022/05/26 02:11:33;;;;;;;;;;;;;;;-142.75;100.00;77084.09;5053163;28;19920;-70
2022/05/26 02:14:02;;;;;;;;;;;;;;;-142.75;100.00;77086.06;5052887;28;20480;-69
2022/05/26 02:16:47;;;;;;;;;;;;;;;-142.75;100.00;77086.06;5052952;28;19917;-69
2022/05/26 02:19:16;;;;;;;;;;;;;;;-142.75;100.00;77090.00;5035193;28;20286;-69
2022/05/26 02:21:45;;;;;;;;;;;;;;;-142.75;100.00;77091.97;5052930;28;19999;-69
2022/05/26 02:24:15;;;;;;;;;;;;;;;-142.75;100.00;77101.81;5052713;28;19966;-69
2022/05/26 02:26:41;;;;;;;;;;;;;;;-142.75;100.00;77090.00;5068038;28;19939;-69
2022/05/26 02:31:50;;;;;;;;;;;;;;;-142.75;100.00;77101.81;5053188;28;19923;-69
2022/05/26 02:34:17;;;;;;;;;;;;;;;-142.75;100.00;77105.75;5052425;28;20023;-70
2022/05/26 02:36:44;;;;;;;;;;;;;;;-142.75;100.00;77109.69;5052771;28;19929;-69
2022/05/26 02:39:09;;;;;;;;;;;;;;;-142.75;100.00;77109.69;5052418;28;19921;-69
2022/05/26 02:41:35;;;;;;;;;;;;;;;-142.75;100.00;77109.69;5034411;28;19967;-69
2022/05/26 02:44:01;;;;;;;;;;;;;;;-142.75;100.00;77117.56;5034674;28;19924;-69
2022/05/26 02:46:50;;;;;;;;;;;;;;;-142.75;100.00;77119.53;5052420;28;19925;-69
2022/05/26 02:49:18;;;;;;;;;;;;;;;-142.75;100.00;77121.50;5052024;28;19917;-70
2022/05/26 02:51:43;;;;;;;;;;;;;;;-142.75;100.00;77123.47;5052341;28;19940;-69
2022/05/26 02:54:24;;;;;;;;;;;;;;;-142.75;100.00;77121.50;5067458;28;20378;-69
2022/05/26 02:56:55;;;;;;;;;;;;;;;-142.75;100.00;77125.44;5052232;28;19917;-69
2022/05/26 02:59:26;;;;;;;;;;;;;;;-142.75;100.00;77133.31;5034474;28;19921;-69
2022/05/26 03:01:55;;;;;;;;;;;;;;;-142.75;100.00;77135.28;5067501;28;19917;-70
2022/05/26 03:04:30;;;;;;;;;;;;;;;-142.75;100.00;77133.31;5052227;28;20448;-70
2022/05/26 03:07:10;;;;;;;;;;;;;;;-142.75;100.00;77141.19;5052305;28;19917;-69
2022/05/26 03:09:37;;;;;;;;;;;;;;;-142.75;100.00;77137.25;5052254;28;20332;-70
2022/05/26 03:12:03;;;;;;;;;;;;;;;-142.75;100.00;77139.22;5052015;28;19924;-69
2022/05/26 03:14:28;;;;;;;;;;;;;;;-142.75;100.00;77137.25;5051957;28;19920;-70
2022/05/26 03:16:53;;;;;;;;;;;;;;;-142.75;100.00;77145.13;5051658;28;19920;-69
2022/05/26 03:19:18;;;;;;;;;;;;;;;-142.75;100.00;77153.00;5051660;28;19917;-69
2022/05/26 03:21:44;;;;;;;;;;;;;;;-142.75;100.00;77153.00;5033825;28;20008;-69
2022/05/26 03:24:10;;;;;;;;;;;;;;;-142.75;100.00;77154.97;5033739;28;19986;-69
2022/05/26 03:26:35;;;;;;;;;;;;;;;-142.75;100.00;77153.00;5051414;28;19923;-69
2022/05/26 03:29:01;;;;;;;;;;;;;;;-142.75;100.00;77145.13;5052068;28;20023;-69
2022/05/26 03:31:27;;;;;;;;;;;;;;;-142.75;100.00;77158.91;5051529;28;19923;-69
2022/05/26 03:42:04;;;;;;;;;;;;;;;-142.75;100.00;77156.94;5051092;28;20356;-69
2022/05/26 03:44:31;;;;;;;;;;;;;;;-142.75;100.00;77162.84;5051256;28;19921;-70
2022/05/26 03:46:57;;;;;;;;;;;;;;;-142.75;100.00;77168.75;5033396;28;19978;-70
2022/05/26 03:49:22;;;;;;;;;;;;;;;-142.75;100.00;77178.59;5050751;28;19920;-70
2022/05/26 03:51:47;;;;;;;;;;;;;;;-142.75;100.00;77178.59;5051319;28;19917;-70
2022/05/26 03:54:12;;;;;;;;;;;;;;;-142.75;100.00;77180.56;5051022;28;19927;-69
2022/05/26 03:56:37;;;;;;;;;;;;;;;-142.75;100.00;77176.63;5050968;28;19916;-70
2022/05/26 03:59:02;;;;;;;;;;;;;;;-142.75;100.00;77176.63;5051492;28;19921;-69
2022/05/26 04:01:28;;;;;;;;;;;;;;;-142.75;100.00;77184.50;5051111;28;19960;-70
2022/05/26 04:03:55;;;;;;;;;;;;;;;-142.75;100.00;77188.44;5050727;28;20360;-69
2022/05/26 04:06:20;;;;;;;;;;;;;;;-142.75;100.00;77192.38;5066307;28;19916;-69
2022/05/26 04:08:46;;;;;;;;;;;;;;;-142.75;100.00;77184.50;5050526;28;19917;-69
2022/05/26 04:11:11;;;;;;;;;;;;;;;-142.75;100.00;77192.38;5050675;28;19917;-70
2022/05/26 04:13:36;;;;;;;;;;;;;;;-142.75;100.00;77206.16;5050781;28;19928;-70
2022/05/26 04:16:01;;;;;;;;;;;;;;;-142.75;100.00;77210.09;5050529;28;19917;-70
2022/05/26 04:18:26;;;;;;;;;;;;;;;-142.75;100.00;77214.03;5050448;28;19916;-69
2022/05/26 04:20:51;;;;;;;;;;;;;;;-142.75;100.00;77219.94;5032894;28;20374;-70
2022/05/26 04:23:17;;;;;;;;;;;;;;;-142.75;100.00;77223.88;5050578;28;19931;-68
2022/05/26 04:25:42;;;;;;;;;;;;;;;-142.75;100.00;77233.72;5050742;28;19924;-69
2022/05/26 04:28:07;;;;;;;;;;;;;;;-142.75;100.00;77229.78;5055838;22;19925;-66
2022/05/26 04:30:33;;;;;;;;;;;;;;;-142.75;100.00;77227.81;5029700;28;19921;-67
2022/05/26 04:32:58;;;;;;;;;;;;;;;-142.75;100.00;77235.69;5030229;28;19929;-67
2022/05/26 04:35:24;;;;;;;;;;;;;;;-142.75;100.00;77231.75;5030730;28;19944;-67
2022/05/26 04:37:49;;;;;;;;;;;;;;;-142.75;100.00;77239.63;5042252;28;19917;-66
2022/05/26 04:40:14;;;;;;;;;;;;;;;-142.75;100.00;77227.81;5050248;28;19995;-66
2022/05/26 04:42:40;;;;;;;;;;;;;;;-142.75;100.00;77237.66;5050384;28;19924;-66
2022/05/26 04:45:06;;;;;;;;;;;;;;;-142.75;100.00;77229.78;5050110;28;19920;-66
2022/05/26 04:47:31;;;;;;;;;;;;;;;-142.75;100.00;77223.88;5050294;28;19923;-67
2022/05/26 04:49:56;;;;;;;;;;;;;;;-142.75;100.00;77223.88;5050553;28;19925;-67
2022/05/26 04:52:23;;;;;;;;;;;;;;;-142.75;100.00;77216.00;5050774;28;19959;-67
2022/05/26 04:54:48;;;;;;;;;;;;;;;-142.75;100.00;77214.03;5054560;28;20309;-67
2022/05/26 04:57:15;;;;;;;;;;;;;;;-142.75;100.00;77208.13;5054364;28;19931;-67
2022/05/26 04:59:40;;;;;;;;;;;;;;;-142.75;100.00;77198.28;5054699;28;19931;-67
2022/05/26 05:02:09;;;;;;;;;;;;;;;-142.75;100.00;77202.22;5054408;28;19925;-67
2022/05/26 05:04:34;;;;;;;;;;;;;;;-142.75;100.00;77208.13;5054434;28;19917;-67
2022/05/26 05:06:59;;;;;;;;;;;;;;;-142.75;100.00;77212.06;5053971;28;19917;-67
2022/05/26 05:09:24;;;;;;;;;;;;;;;-142.75;100.00;77208.13;5054027;28;19959;-67
2022/05/26 05:11:50;;;;;;;;;;;;;;;-142.75;100.00;77204.19;5054249;28;20445;-66
2022/05/26 05:14:15;;;;;;;;;;;;;;;-142.75;100.00;77200.25;5053946;28;19925;-67
2022/05/26 05:16:45;;;;;;;;;;;;;;;-142.75;100.00;77184.50;5054036;28;19974;-67
2022/05/26 05:19:11;;;;;;;;;;;;;;;-142.75;100.00;77170.72;5053914;28;19913;-67
2022/05/26 05:21:43;;;;;;;;;;;;;;;-142.75;100.00;77162.84;5054064;28;19962;-67
2022/05/26 05:24:14;;;;;;;;;;;;;;;-142.75;100.00;77139.22;5053761;28;20396;-67
2022/05/26 05:26:43;;;;;;;;;;;;;;;-142.75;100.00;77119.53;5053836;28;19928;-67
2022/05/26 05:29:10;;;;;;;;;;;;;;;-142.75;100.00;77119.53;5054253;28;20369;-67
2022/05/26 05:31:38;;;;;;;;;;;;;;;-142.75;100.00;77101.81;5053941;28;19947;-67
2022/05/26 05:34:12;;;;;;;;;;;;;;;-142.75;100.00;77084.09;5053727;28;19943;-67
2022/05/26 05:36:38;;;;;;;;;;;;;;;-142.75;100.00;77072.28;5053737;28;19917;-67
2022/05/26 05:39:03;;;;;;;;;;;;;;;-142.75;100.00;77050.63;5053428;28;19924;-67
2022/05/26 05:41:29;;;;;;;;;;;;;;;-142.75;100.00;77030.94;5053804;28;21648;-67
2022/05/26 05:43:57;;;;;;;;;;;;;;;-142.75;100.00;77021.09;5053619;28;19970;-66
2022/05/26 05:46:22;;;;;;;;;;;;;;;-142.75;100.00;77017.16;5053681;28;20023;-67
2022/05/26 05:48:47;;;;;;;;;;;;;;;-142.75;100.00;76993.53;5053610;28;19960;-67
2022/05/26 05:51:13;;;;;;;;;;;;;;;-142.75;100.00;76983.69;5053593;28;19956;-67
2022/05/26 05:53:39;;;;;;;;;;;;;;;-142.75;100.00;76973.84;5053397;28;19943;-67
2022/05/26 05:56:04;;;;;;;;;;;;;;;-142.75;100.00;76960.06;5053259;28;19916;-67
2022/05/26 05:58:29;;;;;;;;;;;;;;;-142.75;100.00;76960.06;5053700;28;19917;-67
2022/05/26 06:00:54;;;;;;;;;;;;;;;-142.75;100.00;76942.34;5053607;28;20321;-66
2022/05/26 06:03:20;;;;;;;;;;;;;;;-142.75;100.00;76940.38;5053114;28;20023;-67
2022/05/26 06:05:45;;;;;;;;;;;;;;;-142.75;100.00;76932.50;5053108;28;19921;-67
2022/05/26 06:08:10;;;;;;;;;;;;;;;-142.75;100.00;76924.63;5053027;28;19925;-67
2022/05/26 06:10:36;;;;;;;;;;;;;;;-142.75;100.00;76912.81;5035321;28;19917;-67
2022/05/26 06:13:01;;;;;;;;;;;;;;;-142.75;100.00;76897.06;5053186;28;19921;-67
2022/05/26 06:15:27;;;;;;;;;;;;;;;-142.75;100.00;76867.53;5053382;28;19925;-67
2022/05/26 06:17:52;;;;;;;;;;;;;;;-142.75;100.00;76869.50;5052770;28;19923;-66
2022/05/26 06:20:17;;;;;;;;;;;;;;;-142.75;100.00;76843.91;5035225;28;19917;-67
2022/05/26 06:22:44;;;;;;;;;;;;;;;-142.75;100.00;76828.16;5053387;28;20059;-67
2022/05/26 06:25:10;;;;;;;;;;;;;;;-142.75;100.00;76843.91;5053524;28;19921;-67
2022/05/26 06:30:20;;;;;;;;;;;;;;;-142.75;100.00;76877.38;5054050;28;19932;-67
2022/05/26 06:38:14;;;;;;;;;;;;;;;-142.75;100.00;76891.16;5052563;28;19940;-67
2022/05/26 06:40:39;;;;;;;;;;;;;;;-142.75;100.00;76881.31;5034784;28;19917;-67
2022/05/26 06:43:05;;;;;;;;;;;;;;;-142.75;100.00;76867.53;5052467;28;19920;-67
2022/05/26 06:45:30;;;;;;;;;;;;;;;-142.75;100.00;76834.06;5052644;28;20286;-67
2022/05/26 06:47:56;;;;;;;;;;;;;;;-142.75;100.00;76806.50;5051981;28;20019;-66
2022/05/26 06:50:21;;;;;;;;;;;;;;;-142.75;100.00;76790.78;5052298;28;19917;-67
2022/05/26 06:52:46;;;;;;;;;;;;;;;-142.75;100.00;76757.31;5052517;28;20388;-66
2022/05/26 06:55:11;;;;;;;;;;;;;;;-142.75;100.00;76735.66;5052349;28;20347;-66
2022/05/26 06:57:36;;;;;;;;;;;;;;;-142.75;100.00;76735.66;5052432;28;19917;-67
2022/05/26 07:00:03;;;;;;;;;;;;;;;-142.75;100.00;76763.22;5052621;28;19917;-66
2022/05/26 07:02:29;;;;;;;;;;;;;;;-142.75;100.00;76763.22;5052541;28;19917;-67
2022/05/26 07:04:54;;;;;;;;;;;;;;;-142.75;100.00;76788.81;5052164;28;19998;-66
2022/05/26 07:07:19;;;;;;;;;;;;;;;-142.75;100.00;76788.81;5052095;28;20347;-67
2022/05/26 07:09:44;;;;;;;;;;;;;;;-142.75;100.00;76767.16;5051788;28;20363;-67
2022/05/26 07:12:10;;;;;;;;;;;;;;;-142.75;100.00;76721.88;5052392;28;19971;-66
2022/05/26 07:14:35;;;;;;;;;;;;;;;-142.75;100.00;76694.31;5051985;28;20051;-66
2022/05/26 07:17:00;;;;;;;;;;;;;;;-142.75;100.00;76664.78;5066620;28;19916;-66
2022/05/26 07:19:25;;;;;;;;;;;;;;;-142.75;100.00;76647.06;5033634;28;19916;-67
2022/05/26 07:21:51;;;;;;;;;;;;;;;-142.75;100.00;76631.31;5034028;28;19928;-66
2022/05/26 07:24:21;;;;;;;;;;;;;;;-142.75;100.00;76651.00;5051569;28;20347;-67
2022/05/26 07:26:47;;;;;;;;;;;;;;;-142.75;100.00;76649.03;5051422;28;19925;-66
2022/05/26 07:29:13;;;;;;;;;;;;;;;-142.75;100.00;76647.06;5052073;28;19924;-66
2022/05/26 07:31:38;;;;;;;;;;;;;;;-142.75;100.00;76619.50;5050435;28;19916;-66
2022/05/26 07:34:03;;;;;;;;;;;;;;;-142.75;100.00;76629.34;5050081;28;19928;-66
2022/05/26 07:42:02;;;;;;;;;;;;;;;-142.75;100.00;76658.88;5050927;28;19962;-66
2022/05/26 07:44:28;;;;;;;;;;;;;;;-142.75;100.00;76645.09;5050104;28;19916;-67
2022/05/26 07:46:53;;;;;;;;;;;;;;;-142.75;100.00;76633.28;5050181;28;19921;-66
2022/05/26 07:49:19;;;;;;;;;;;;;;;-142.75;100.00;76625.41;5032277;28;19932;-67
2022/05/26 07:51:44;;;;;;;;;;;;;;;-142.75;100.00;76645.09;5050178;28;19997;-66
2022/05/26 07:54:09;;;;;;;;;;;;;;;-142.75;100.00;76668.72;5032304;28;19920;-66
2022/05/26 07:56:36;;;;;;;;;;;;;;;-142.75;100.00;76668.72;5050210;28;19916;-66
2022/05/26 07:59:02;;;;;;;;;;;;;;;-142.75;100.00;76684.47;5050014;28;19921;-66
2022/05/26 08:01:27;;;;;;;;;;;;;;;-142.75;100.00;76668.72;5050400;28;19923;-66
2022/05/26 08:03:53;;;;;;;;;;;;;;;-142.75;100.00;76641.16;5049922;28;19917;-66
2022/05/26 08:06:19;;;;;;;;;;;;;;;-142.75;100.00;76668.72;5049946;28;19967;-66
2022/05/26 08:08:44;;;;;;;;;;;;;;;-142.75;100.00;76704.16;5049660;28;19963;-66
2022/05/26 08:11:10;;;;;;;;;;;;;;;-142.75;100.00;76676.59;5032132;28;20394;-66
2022/05/26 08:13:35;;;;;;;;;;;;;;;-142.75;100.00;76690.38;5049652;28;20328;-66
2022/05/26 08:16:00;;;;;;;;;;;;;;;-142.75;100.00;76651.00;5049755;28;20019;-66
2022/05/26 08:18:27;;;;;;;;;;;;;;;-142.75;100.00;76613.59;5049166;28;19928;-66
2022/05/26 08:20:52;;;;;;;;;;;;;;;-142.75;100.00;76643.13;5049842;28;19924;-66
2022/05/26 08:23:22;;;;;;;;;;;;;;;-142.75;100.00;76674.63;5049857;28;19917;-66
2022/05/26 08:25:47;;;;;;;;;;;;;;;-142.75;100.00;76670.69;5049810;28;19942;-66
2022/05/26 08:28:12;;;;;;;;;;;;;;;-142.75;100.00;76647.06;5048407;28;19917;-66
2022/05/26 08:30:39;;;;;;;;;;;;;;;-142.75;100.00;76621.47;5049555;28;19998;-66
2022/05/26 08:33:04;;;;;;;;;;;;;;;-142.75;100.00;76586.03;5049637;28;19928;-66
2022/05/26 08:35:30;;;;;;;;;;;;;;;-142.75;100.00;76574.22;5049547;28;19916;-67
2022/05/26 08:37:55;;;;;;;;;;;;;;;-142.75;100.00;76619.50;5049159;28;19921;-64
2022/05/26 08:40:28;;;;;;;;;;;;;;;-142.75;100.00;76576.19;5049379;28;19960;-68
2022/05/26 08:42:53;;;;;;;;;;;;;;;-142.75;100.00;76546.66;5049381;28;19924;-64
2022/05/26 08:45:19;;;;;;;;;;;;;;;-142.75;100.00;76566.34;5049343;28;19925;-65
2022/05/26 08:47:45;;;;;;;;;;;;;;;-142.75;100.00;76607.69;5049032;28;19917;-65
2022/05/26 08:50:14;;;;;;;;;;;;;;;-142.75;100.00;76641.16;5049384;28;19920;-65
2022/05/26 08:53:11;;;;;;;;;;;;;;;-142.75;100.00;76664.78;5049298;28;19921;-66
2022/05/26 08:55:42;;;;;;;;;;;;;;;-142.75;100.00;76672.66;5015657;28;19917;-66
2022/05/26 08:58:27;;;;;;;;;;;;;;;-142.75;100.00;76686.44;5048890;28;19920;-65
2022/05/26 09:00:53;;;;;;;;;;;;;;;-142.75;100.00;76662.81;5049474;28;19931;-66
2022/05/26 09:03:21;;;;;;;;;;;;;;;-142.75;100.00;76682.50;5049380;28;19925;-66
2022/05/26 09:05:49;;;;;;;;;;;;;;;-142.75;100.00;76686.44;5049057;28;19972;-66
2022/05/26 09:13:51;;;;;;;;;;;;;;;-142.75;100.00;76690.38;5049174;28;20067;-67
2022/05/26 09:16:16;;;;;;;;;;;;;;;-142.75;100.00;76712.03;5049061;28;20011;-66
2022/05/26 09:18:41;;;;;;;;;;;;;;;-142.75;100.00;76739.59;5048941;28;19956;-66
2022/05/26 09:21:19;;;;;;;;;;;;;;;-142.75;100.00;76743.53;5049087;28;20029;-66
2022/05/26 09:23:44;;;;;;;;;;;;;;;-142.75;100.00;76759.28;5047894;28;19917;-66
2022/05/26 09:26:11;;;;;;;;;;;;;;;-142.75;100.00;76739.59;5049262;28;20391;-66
2022/05/26 09:28:36;;;;;;;;;;;;;;;-142.75;100.00;76712.03;5048661;28;19917;-66
2022/05/26 09:31:17;;;;;;;;;;;;;;;-142.75;100.00;76739.59;5049861;28;20345;-66
2022/05/26 09:33:43;;;;;;;;;;;;;;;-142.75;100.00;76743.53;5049636;28;19936;-66
2022/05/26 09:36:24;;;;;;;;;;;;;;;-142.75;100.00;76731.72;5049755;28;19925;-66
2022/05/26 09:38:50;;;;;;;;;;;;;;;-142.75;100.00;76775.03;5050719;28;19932;-66
2022/05/26 09:41:16;;;;;;;;;;;;;;;-142.75;100.00;76755.34;5068344;28;19920;-66
2022/05/26 09:43:46;;;;;;;;;;;;;;;-142.75;100.00;76704.16;5053018;28;19967;-66
2022/05/26 09:46:15;;;;;;;;;;;;;;;-142.75;100.00;76747.47;5053049;28;19916;-66
2022/05/26 09:48:40;;;;;;;;;;;;;;;-142.75;100.00;76706.13;5052790;28;20330;-66
2022/05/26 09:51:22;;;;;;;;;;;;;;;-142.75;100.00;76702.19;5053005;28;19921;-66
2022/05/26 09:53:50;;;;;;;;;;;;;;;-142.75;100.00;76715.97;5052747;28;19920;-66
2022/05/26 09:56:51;;;;;;;;;;;;;;;-142.75;100.00;76731.72;5035242;28;19964;-66
2022/05/26 09:59:22;;;;;;;;;;;;;;;-142.75;100.00;76690.38;4991293;28;19984;-66
2022/05/26 10:01:47;;;;;;;;;;;;;;;-142.75;100.00;76721.88;5042162;28;19917;-66
2022/05/26 10:04:23;;;;;;;;;;;;;;;-142.75;100.00;76751.41;5052916;28;20362;-66
2022/05/26 10:06:55;;;;;;;;;;;;;;;-142.75;100.00;76788.81;5053096;28;19917;-66
2022/05/26 10:09:31;;;;;;;;;;;;;;;-142.75;100.00;76796.69;5052726;28;19920;-66
2022/05/26 10:11:56;;;;;;;;;;;;;;;-142.75;100.00;76826.19;5052763;28;19956;-65
2022/05/26 10:14:30;;;;;;;;;;;;;;;-142.75;100.00;76834.06;5052423;28;20010;-65
2022/05/26 10:17:31;;;;;;;;;;;;;;;-142.75;100.00;76853.75;5052871;28;19924;-65
2022/05/26 10:19:56;;;;;;;;;;;;;;;-142.75;100.00;76798.66;4990693;28;19981;-65
2022/05/26 10:22:41;;;;;;;;;;;;;;;-142.75;100.00;76784.88;5039575;28;19925;-65
2022/05/26 10:25:29;;;;;;;;;;;;;;;-142.75;100.00;76769.13;5052626;28;20416;-66
2022/05/26 10:28:10;;;;;;;;;;;;;;;-142.75;100.00;76712.03;5052036;28;19916;-66
2022/05/26 10:30:45;;;;;;;;;;;;;;;-142.75;100.00;76637.22;5052415;28;19927;-66
2022/05/26 10:33:30;;;;;;;;;;;;;;;-142.75;100.00;76603.75;5052399;28;19924;-66
2022/05/26 10:36:09;;;;;;;;;;;;;;;-142.75;100.00;76656.91;5051670;28;19921;-66
2022/05/26 10:38:41;;;;;;;;;;;;;;;-142.75;100.00;76660.84;5051987;28;20409;-66
2022/05/26 10:41:08;;;;;;;;;;;;;;;-142.75;100.00;76645.09;5052285;28;19924;-66
2022/05/26 10:43:47;;;;;;;;;;;;;;;-142.75;100.00;76645.09;5052031;28;19921;-66
2022/05/26 10:46:13;;;;;;;;;;;;;;;-142.75;100.00;76688.41;5052296;28;19923;-66
2022/05/26 10:48:45;;;;;;;;;;;;;;;-142.75;100.00;76719.91;5051809;28;19917;-66
2022/05/26 10:51:15;;;;;;;;;;;;;;;-142.75;100.00;76733.69;5051101;28;19925;-66
2022/05/26 10:53:52;;;;;;;;;;;;;;;-142.75;100.00;76737.63;5052011;28;19928;-66
2022/05/26 10:56:21;;;;;;;;;;;;;;;-142.75;100.00;76700.22;5051959;28;20400;-66
2022/05/26 10:58:49;;;;;;;;;;;;;;;-142.75;100.00;76651.00;5051554;28;20456;-66
2022/05/26 11:01:21;;;;;;;;;;;;;;;-142.75;100.00;76654.94;5067657;28;20314;-66
2022/05/26 11:03:50;;;;;;;;;;;;;;;-142.75;100.00;76674.63;5051960;28;19925;-66
2022/05/26 11:06:15;;;;;;;;;;;;;;;-142.75;100.00;76623.44;5051962;28;19924;-66
2022/05/26 11:08:41;;;;;;;;;;;;;;;-142.75;100.00;76649.03;5051213;28;19923;-66
2022/05/26 11:11:06;;;;;;;;;;;;;;;-142.75;100.00;76680.53;5051729;28;19916;-66
2022/05/26 11:13:37;;;;;;;;;;;;;;;-142.75;100.00;76712.03;5051449;28;19975;-66
2022/05/26 11:18:55;;;;;;;;;;;;;;;-142.75;100.00;76647.06;5051473;28;20019;-66
2022/05/26 11:21:21;;;;;;;;;;;;;;;-142.75;100.00;76651.00;5051503;28;19925;-66
2022/05/26 11:23:47;;;;;;;;;;;;;;;-142.75;100.00;76700.22;5051397;28;19920;-65
2022/05/26 11:26:19;;;;;;;;;;;;;;;-142.75;100.00;76652.97;5051791;28;20431;-66
2022/05/26 11:28:48;;;;;;;;;;;;;;;-142.75;100.00;76672.66;5050694;28;19917;-66
2022/05/26 11:37:15;;;;;;;;;;;;;;;-142.75;100.00;76629.34;5051474;28;19927;-66
2022/05/26 11:39:42;;;;;;;;;;;;;;;-142.75;100.00;76617.53;5050807;28;20449;-66
2022/05/26 11:42:10;;;;;;;;;;;;;;;-142.75;100.00;76580.13;5049787;28;19920;-66
2022/05/26 11:44:38;;;;;;;;;;;;;;;-142.75;100.00;76582.09;5050880;28;19955;-66
2022/05/26 11:47:22;;;;;;;;;;;;;;;-142.75;100.00;76554.53;5051078;28;19970;-66
2022/05/26 11:49:48;;;;;;;;;;;;;;;-142.75;100.00;76591.94;5050600;28;19924;-66
2022/05/26 11:52:23;;;;;;;;;;;;;;;-142.75;100.00;76625.41;5051081;28;19917;-66
2022/05/26 11:54:52;;;;;;;;;;;;;;;-142.75;100.00;76621.47;5050850;28;19924;-66
2022/05/26 11:57:40;;;;;;;;;;;;;;;-142.75;100.00;76633.28;5050605;28;19925;-65
2022/05/26 12:00:14;;;;;;;;;;;;;;;-142.75;100.00;76641.16;5050749;28;19923;-66
2022/05/26 12:02:39;;;;;;;;;;;;;;;-142.75;100.00;76615.56;5050638;28;20402;-66
2022/05/26 12:05:24;;;;;;;;;;;;;;;-142.75;100.00;76609.66;5050556;28;19924;-66
2022/05/26 12:07:50;;;;;;;;;;;;;;;-142.75;100.00;76625.41;5018935;28;19948;-66
2022/05/26 12:10:20;;;;;;;;;;;;;;;-142.75;100.00;76627.38;5050539;28;19956;-66
2022/05/26 12:12:45;;;;;;;;;;;;;;;-142.75;100.00;76611.63;5032108;28;19924;-65
2022/05/26 12:15:21;;;;;;;;;;;;;;;-142.75;100.00;76605.72;5050339;28;19939;-66
2022/05/26 12:17:48;;;;;;;;;;;;;;;-142.75;100.00;76582.09;5083622;23;19979;-70
2022/05/26 12:20:14;;;;;;;;;;;;;;;-142.75;100.00;76597.84;5068969;28;20297;-69
2022/05/26 12:22:51;;;;;;;;;;;;;;;-142.75;100.00;76568.31;5070554;28;20003;-69
2022/05/26 12:25:16;;;;;;;;;;;;;;;-142.75;100.00;76609.66;5070429;28;19923;-67
2022/05/26 12:27:54;;;;;;;;;;;;;;;-142.75;100.00;76615.56;5081983;28;19920;-67
2022/05/26 12:30:38;;;;;;;;;;;;;;;-142.75;100.00;76601.78;5090665;28;19916;-69
2022/05/26 12:33:23;;;;;;;;;;;;;;;-142.75;100.00;76582.09;5090574;28;19928;-69
2022/05/26 12:35:58;;;;;;;;;;;;;;;-142.75;100.00;76562.41;5059242;28;19923;-69
2022/05/26 12:38:26;;;;;;;;;;;;;;;-142.75;100.00;76582.09;5090476;28;19920;-69
2022/05/26 12:41:17;;;;;;;;;;;;;;;-142.75;100.00;76554.53;5090606;28;19916;-69
2022/05/26 12:43:43;;;;;;;;;;;;;;;-142.75;100.00;76613.59;5066737;28;19926;-70
2022/05/26 12:46:25;;;;;;;;;;;;;;;-142.75;100.00;76582.09;5090638;28;20390;-70
2022/05/26 12:48:53;;;;;;;;;;;;;;;-142.75;100.00;76574.22;5090959;28;19970;-70
2022/05/26 12:51:20;;;;;;;;;;;;;;;-142.75;100.00;76601.78;5090685;28;19916;-69
2022/05/26 12:54:06;;;;;;;;;;;;;;;-142.75;100.00;76564.38;5090618;28;19943;-70
2022/05/26 12:56:51;;;;;;;;;;;;;;;-142.75;100.00;76538.78;5090465;28;20335;-70
2022/05/26 12:59:22;;;;;;;;;;;;;;;-142.75;100.00;76501.41;5090199;28;19970;-70
2022/05/26 13:01:48;;;;;;;;;;;;;;;-142.75;100.00;76460.06;5089199;28;19938;-71
2022/05/26 13:04:18;;;;;;;;;;;;;;;-142.75;99.45;76462.03;5090600;28;20019;-71
2022/05/26 13:06:44;;;;;;;;;;;;;;;-142.75;100.00;76462.03;5089174;28;19924;-70